Time;durP1;ratioP1;P1;durP2;ratioP2;P2;SDS_P1;SDS_P2;PMS_P1;PMS_P2;Temp;Humidity;BMP_temperature;BMP_pressure;BME280_temperature;BME280_humidity;BME280_pressure;Samples;Min_cycle;Max_cycle;Signal;HPM_P1;HPM_P2
2021/08/01 00:00:16;;;;;;;17.52;6.05;;;15.90;82.30;;;;;;5011773;28;20591;-72
2021/08/01 00:02:42;;;;;;;14.23;6.10;;;15.90;82.50;;;;;;5003739;28;20046;-74
2021/08/01 00:05:09;;;;;;;11.25;5.90;;;15.90;82.60;;;;;;5006809;28;20097;-72
2021/08/01 00:07:36;;;;;;;16.70;6.15;;;15.80;82.60;;;;;;4999247;28;20141;-73
2021/08/01 00:10:05;;;;;;;14.05;5.78;;;15.90;82.80;;;;;;5005915;28;20037;-71
2021/08/01 00:12:31;;;;;;;14.57;6.22;;;15.80;82.80;;;;;;5006048;28;20030;-72
2021/08/01 00:14:57;;;;;;;13.15;6.35;;;15.80;82.80;;;;;;5010374;28;20445;-73
2021/08/01 00:17:23;;;;;;;15.50;6.97;;;15.80;83.10;;;;;;5007276;28;20030;-71
2021/08/01 00:19:49;;;;;;;16.17;6.60;;;15.80;83.20;;;;;;5010670;28;20164;-71
2021/08/01 00:22:15;;;;;;;17.23;6.70;;;15.80;83.30;;;;;;5005480;28;20022;-72
2021/08/01 00:24:40;;;;;;;15.38;6.47;;;15.70;83.20;;;;;;5000751;28;20033;-71
2021/08/01 00:27:06;;;;;;;15.15;6.90;;;15.70;83.40;;;;;;4993522;28;20198;-71
2021/08/01 00:29:32;;;;;;;14.13;6.03;;;15.70;83.40;;;;;;4998076;28;20473;-75
2021/08/01 00:32:00;;;;;;;16.48;6.60;;;15.60;83.60;;;;;;5000792;28;20065;-71
2021/08/01 00:34:26;;;;;;;12.85;6.43;;;15.60;83.70;;;;;;5002543;28;20048;-72
2021/08/01 00:36:51;;;;;;;15.70;6.97;;;15.70;83.50;;;;;;5021033;28;20042;-72
2021/08/01 00:39:17;;;;;;;14.05;6.57;;;15.70;83.90;;;;;;5019036;28;20590;-71
2021/08/01 00:41:43;;;;;;;14.00;6.18;;;15.70;83.90;;;;;;5003451;28;20053;-73
2021/08/01 00:44:08;;;;;;;17.05;6.32;;;15.70;83.90;;;;;;5002963;28;20104;-73
2021/08/01 00:46:34;;;;;;;14.27;6.38;;;15.70;83.80;;;;;;5008603;28;20045;-76
2021/08/01 00:49:01;;;;;;;15.68;7.20;;;15.80;83.80;;;;;;5005238;28;20552;-72
2021/08/01 00:51:28;;;;;;;18.00;6.65;;;15.70;83.70;;;;;;5007255;28;20049;-71
2021/08/01 00:53:57;;;;;;;17.23;6.85;;;15.80;83.80;;;;;;5012386;28;20029;-72
2021/08/01 00:56:23;;;;;;;16.90;7.00;;;15.80;83.80;;;;;;5014411;28;20031;-76
2021/08/01 00:58:49;;;;;;;23.52;8.07;;;15.80;84.00;;;;;;5013134;28;20122;-72
2021/08/01 01:01:18;;;;;;;12.88;6.32;;;15.80;83.70;;;;;;5015110;28;20021;-72
2021/08/01 01:03:53;;;;;;;20.42;7.55;;;15.80;83.80;;;;;;5010112;28;20045;-75
2021/08/01 01:06:25;;;;;;;16.17;6.78;;;15.70;84.00;;;;;;5006865;28;20034;-72
2021/08/01 01:09:03;;;;;;;16.42;6.57;;;15.70;84.10;;;;;;5014913;28;20183;-74
2021/08/01 01:11:34;;;;;;;22.35;7.63;;;15.60;84.30;;;;;;5008999;28;20041;-73
2021/08/01 01:14:01;;;;;;;15.57;6.57;;;15.60;84.30;;;;;;5008983;28;20088;-72
2021/08/01 01:16:35;;;;;;;18.92;7.07;;;15.60;84.50;;;;;;5033916;28;20033;-75
2021/08/01 01:19:01;;;;;;;16.77;7.75;;;15.50;84.60;;;;;;5030453;28;20049;-72
2021/08/01 01:22:12;;;;;;;19.15;6.80;;;15.50;84.60;;;;;;5028920;28;20142;-72
2021/08/01 01:24:41;;;;;;;17.63;7.30;;;15.50;84.70;;;;;;5022602;28;20106;-72
2021/08/01 01:27:13;;;;;;;16.13;6.72;;;15.50;84.70;;;;;;5022722;28;20044;-72
2021/08/01 01:29:51;;;;;;;15.27;7.05;;;15.60;84.70;;;;;;5027136;28;20049;-74
2021/08/01 01:32:22;;;;;;;13.98;6.60;;;15.60;84.70;;;;;;5029222;28;20049;-72
2021/08/01 01:35:03;;;;;;;18.35;6.50;;;15.60;84.80;;;;;;5014359;28;20028;-73
2021/08/01 01:37:31;;;;;;;16.45;6.72;;;15.70;84.80;;;;;;5008614;28;20045;-72
2021/08/01 01:40:00;;;;;;;18.70;7.22;;;15.70;84.80;;;;;;5002864;28;20089;-72
2021/08/01 01:42:28;;;;;;;16.73;6.95;;;15.70;84.70;;;;;;5005249;28;20230;-72
2021/08/01 01:44:56;;;;;;;15.63;6.15;;;15.70;84.80;;;;;;5001260;28;20034;-72
2021/08/01 01:47:23;;;;;;;15.90;7.18;;;15.80;84.80;;;;;;5005288;28;20052;-72
2021/08/01 01:49:51;;;;;;;16.80;7.47;;;15.80;84.80;;;;;;4999620;28;20454;-72
2021/08/01 01:52:17;;;;;;;18.35;6.55;;;15.80;84.60;;;;;;5001739;28;20191;-74
2021/08/01 01:54:43;;;;;;;13.52;6.65;;;15.80;84.60;;;;;;5004923;28;20138;-72
2021/08/01 01:57:09;;;;;;;16.60;7.55;;;15.80;84.80;;;;;;5028402;28;20123;-73
2021/08/01 01:59:37;;;;;;;18.67;7.15;;;15.80;84.90;;;;;;5025222;28;20120;-72
2021/08/01 02:02:06;;;;;;;16.92;7.78;;;15.80;84.80;;;;;;5016330;28;20128;-72
2021/08/01 02:04:32;;;;;;;16.77;6.95;;;15.80;84.70;;;;;;5008182;28;20473;-72
2021/08/01 02:06:59;;;;;;;16.13;7.47;;;15.80;84.70;;;;;;5003955;28;20035;-74
2021/08/01 02:09:35;;;;;;;19.60;7.95;;;15.70;84.50;;;;;;5002681;28;20495;-72
2021/08/01 02:12:37;;;;;;;20.67;8.43;;;15.70;84.70;;;;;;5010413;28;20461;-73
2021/08/01 02:15:07;;;;;;;17.23;7.35;;;15.60;84.90;;;;;;4997730;28;20105;-73
2021/08/01 02:17:45;;;;;;;19.77;8.35;;;15.60;85.10;;;;;;5010235;28;20035;-72
2021/08/01 02:20:13;;;;;;;21.38;8.02;;;15.50;85.10;;;;;;4997869;28;20480;-72
2021/08/01 02:22:41;;;;;;;18.05;7.57;;;15.50;85.30;;;;;;5006978;28;20034;-73
2021/08/01 02:25:08;;;;;;;19.25;8.38;;;15.50;85.10;;;;;;5014205;28;20030;-71
2021/08/01 02:27:35;;;;;;;20.52;8.38;;;15.60;85.00;;;;;;5016217;28;20055;-75
2021/08/01 02:30:04;;;;;;;14.18;7.45;;;15.50;85.10;;;;;;5035445;28;20041;-72
2021/08/01 02:32:32;;;;;;;22.00;7.82;;;15.50;85.20;;;;;;5004114;28;20037;-72
2021/08/01 02:34:59;;;;;;;17.40;7.85;;;15.50;85.20;;;;;;5006638;28;20026;-73
2021/08/01 02:37:27;;;;;;;17.45;8.10;;;15.50;85.10;;;;;;5006395;28;20061;-73
2021/08/01 02:39:54;;;;;;;13.85;7.45;;;15.40;85.20;;;;;;5005248;28;20038;-71
2021/08/01 02:42:22;;;;;;;16.98;8.68;;;15.40;85.40;;;;;;5008377;28;20030;-72
2021/08/01 02:44:50;;;;;;;21.30;7.93;;;15.40;85.50;;;;;;4998374;28;20524;-73
2021/08/01 02:47:18;;;;;;;20.17;8.95;;;15.40;85.50;;;;;;5005686;28;20026;-72
2021/08/01 02:49:46;;;;;;;19.95;8.80;;;15.40;85.30;;;;;;5002967;28;20081;-73
2021/08/01 02:52:27;;;;;;;19.00;7.93;;;15.30;85.30;;;;;;5006679;28;20057;-72
2021/08/01 02:54:53;;;;;;;15.15;7.65;;;15.30;85.40;;;;;;5015583;28;20076;-72
2021/08/01 02:57:23;;;;;;;17.45;8.50;;;15.30;85.40;;;;;;5026573;28;20458;-72
2021/08/01 02:59:49;;;;;;;19.58;8.68;;;15.30;85.30;;;;;;5025901;28;20025;-73
2021/08/01 03:02:16;;;;;;;17.83;7.78;;;15.30;85.30;;;;;;5022245;28;20064;-72
2021/08/01 03:04:43;;;;;;;15.05;8.00;;;15.20;85.30;;;;;;5025578;28;20316;-73
2021/08/01 03:07:12;;;;;;;18.17;7.65;;;15.20;85.30;;;;;;5029401;28;20033;-72
2021/08/01 03:09:38;;;;;;;17.48;9.48;;;15.20;85.30;;;;;;5028942;28;20116;-72
2021/08/01 03:12:08;;;;;;;17.67;7.70;;;15.10;85.20;;;;;;5029594;28;20135;-75
2021/08/01 03:14:34;;;;;;;14.73;8.65;;;15.10;85.30;;;;;;5021990;28;20029;-75
2021/08/01 03:17:00;;;;;;;18.33;8.48;;;15.10;85.30;;;;;;5028534;28;20039;-73
2021/08/01 03:19:26;;;;;;;16.63;8.38;;;15.10;85.50;;;;;;5032907;28;20373;-72
2021/08/01 03:21:51;;;;;;;16.88;8.25;;;15.10;85.50;;;;;;5027217;28;20034;-72
2021/08/01 03:24:17;;;;;;;18.38;9.05;;;15.00;85.70;;;;;;5012475;28;20485;-73
2021/08/01 03:26:43;;;;;;;17.95;8.80;;;14.90;85.80;;;;;;5025080;28;20037;-73
2021/08/01 03:29:08;;;;;;;16.25;8.13;;;14.80;85.80;;;;;;5009960;28;20507;-72
2021/08/01 03:31:34;;;;;;;20.17;8.85;;;14.80;86.10;;;;;;4998718;28;20048;-72
2021/08/01 03:33:59;;;;;;;18.92;9.68;;;14.80;86.20;;;;;;4995189;28;20476;-72
2021/08/01 03:36:25;;;;;;;18.02;7.80;;;14.70;86.40;;;;;;5005210;28;20117;-72
2021/08/01 03:38:51;;;;;;;16.50;8.35;;;14.70;86.60;;;;;;5005061;28;20046;-75
2021/08/01 03:41:16;;;;;;;19.40;9.73;;;14.70;86.40;;;;;;4997032;28;20034;-72
2021/08/01 03:43:42;;;;;;;20.58;8.68;;;14.70;86.50;;;;;;5003500;28;20084;-72
2021/08/01 03:46:08;;;;;;;15.63;8.45;;;14.70;86.70;;;;;;4999151;28;20365;-72
2021/08/01 03:48:33;;;;;;;19.85;9.00;;;14.80;86.60;;;;;;4999084;28;20054;-71
2021/08/01 03:50:59;;;;;;;17.88;8.25;;;14.80;86.40;;;;;;5001467;28;20046;-72
2021/08/01 03:53:25;;;;;;;20.38;9.43;;;14.80;86.50;;;;;;4996742;28;20050;-72
2021/08/01 03:55:51;;;;;;;20.80;8.48;;;14.80;86.40;;;;;;4997143;28;20042;-73
2021/08/01 03:58:17;;;;;;;21.17;8.50;;;14.70;86.60;;;;;;5008578;28;20056;-73
2021/08/01 04:00:47;;;;;;;20.77;8.65;;;14.70;86.60;;;;;;5012681;28;20044;-72
2021/08/01 04:03:12;;;;;;;17.40;8.30;;;14.80;86.50;;;;;;5017393;28;20047;-72
2021/08/01 04:05:38;;;;;;;15.02;7.45;;;14.80;86.60;;;;;;5015515;28;20111;-72
2021/08/01 04:08:04;;;;;;;16.55;8.13;;;14.80;86.60;;;;;;4998025;28;20064;-72
2021/08/01 04:10:30;;;;;;;16.00;8.10;;;14.70;86.70;;;;;;5008913;28;20045;-72
2021/08/01 04:12:56;;;;;;;18.25;8.55;;;14.80;86.70;;;;;;5011515;28;20053;-72
2021/08/01 04:15:21;;;;;;;18.75;8.13;;;14.80;86.70;;;;;;5006280;28;20493;-72
2021/08/01 04:17:47;;;;;;;17.92;7.53;;;14.80;86.50;;;;;;5004846;28;20025;-72
2021/08/01 04:20:15;;;;;;;18.38;8.38;;;14.80;86.50;;;;;;5005427;28;20029;-72
2021/08/01 04:22:41;;;;;;;16.85;8.27;;;14.80;86.30;;;;;;5005664;28;20030;-72
2021/08/01 04:25:07;;;;;;;15.70;8.20;;;14.90;86.50;;;;;;5005211;28;20033;-73
2021/08/01 04:27:33;;;;;;;18.02;7.88;;;14.90;86.40;;;;;;5004310;28;20037;-72
2021/08/01 04:29:58;;;;;;;18.25;7.72;;;15.00;86.50;;;;;;5013683;28;20034;-71
2021/08/01 04:32:24;;;;;;;13.73;7.75;;;15.00;86.40;;;;;;5010331;28;20037;-72
2021/08/01 04:34:50;;;;;;;19.17;8.02;;;15.00;86.30;;;;;;5012698;28;20045;-71
2021/08/01 04:37:15;;;;;;;15.50;8.85;;;15.10;86.30;;;;;;5034434;28;20071;-71
2021/08/01 04:39:41;;;;;;;18.85;8.40;;;15.00;86.30;;;;;;5030504;28;20376;-73
2021/08/01 04:42:06;;;;;;;16.38;7.53;;;15.10;86.20;;;;;;5027733;28;20040;-73
2021/08/01 04:44:32;;;;;;;16.98;7.15;;;15.10;86.10;;;;;;5043257;28;20112;-72
2021/08/01 04:46:58;;;;;;;15.50;7.93;;;15.10;86.20;;;;;;5028990;28;20033;-71
2021/08/01 04:49:24;;;;;;;20.27;7.60;;;15.10;85.90;;;;;;5033595;28;20041;-72
2021/08/01 04:51:49;;;;;;;18.42;8.18;;;15.20;85.90;;;;;;5023830;28;20041;-71
2021/08/01 04:54:15;;;;;;;17.05;8.48;;;15.10;86.00;;;;;;5028297;28;20029;-72
2021/08/01 04:56:45;;;;;;;15.27;7.80;;;15.20;86.00;;;;;;5031592;28;20033;-74
2021/08/01 04:59:11;;;;;;;24.45;8.95;;;15.20;86.00;;;;;;5044726;28;20364;-71
2021/08/01 05:01:37;;;;;;;19.25;7.93;;;15.30;85.70;;;;;;5030896;28;20029;-72
2021/08/01 05:04:03;;;;;;;17.05;8.77;;;15.30;85.80;;;;;;5019207;28;20045;-73
2021/08/01 05:06:29;;;;;;;14.13;7.20;;;15.40;85.70;;;;;;5029199;28;20465;-72
2021/08/01 05:08:54;;;;;;;21.52;7.75;;;15.40;85.70;;;;;;5033270;28;20120;-72
2021/08/01 05:11:20;;;;;;;20.52;7.93;;;15.40;85.40;;;;;;5027715;28;20032;-72
2021/08/01 05:13:46;;;;;;;14.70;8.07;;;15.40;85.60;;;;;;5024244;28;20029;-71
2021/08/01 05:16:18;;;;;;;14.13;6.88;;;15.40;85.80;;;;;;5030532;28;20038;-73
2021/08/01 05:18:44;;;;;;;17.83;8.20;;;15.50;85.70;;;;;;5027683;28;20528;-72
2021/08/01 05:21:11;;;;;;;19.23;7.93;;;15.50;85.50;;;;;;5016136;28;20025;-72
2021/08/01 05:23:36;;;;;;;15.55;7.90;;;15.50;85.70;;;;;;5020834;28;20116;-72
2021/08/01 05:26:02;;;;;;;16.00;7.15;;;15.50;85.60;;;;;;5032307;28;20128;-72
2021/08/01 05:28:28;;;;;;;15.48;7.63;;;15.60;85.80;;;;;;5021429;28;20372;-73
2021/08/01 05:30:53;;;;;;;19.20;7.68;;;15.60;85.60;;;;;;5027353;28;20454;-73
2021/08/01 05:33:19;;;;;;;21.38;8.50;;;15.60;85.60;;;;;;5015332;28;20037;-72
2021/08/01 05:35:45;;;;;;;18.00;8.05;;;15.80;85.60;;;;;;5022030;28;20561;-72
2021/08/01 05:38:10;;;;;;;19.30;8.05;;;15.70;85.60;;;;;;5025790;28;20033;-76
2021/08/01 05:40:36;;;;;;;18.23;7.88;;;15.80;85.50;;;;;;5027979;28;20123;-74
2021/08/01 05:43:02;;;;;;;19.08;8.27;;;15.90;85.30;;;;;;5026522;28;20045;-73
2021/08/01 05:45:28;;;;;;;18.50;8.07;;;16.00;85.20;;;;;;5028939;28;20737;-74
2021/08/01 05:47:55;;;;;;;17.25;7.60;;;16.00;85.20;;;;;;5024273;28;20038;-74
2021/08/01 05:50:21;;;;;;;15.52;7.63;;;16.10;85.10;;;;;;5031588;28;20029;-73
2021/08/01 05:52:47;;;;;;;15.98;7.85;;;16.10;85.00;;;;;;5026289;28;20041;-73
2021/08/01 05:55:13;;;;;;;20.63;8.07;;;16.20;85.00;;;;;;5031529;28;20025;-72
2021/08/01 05:57:39;;;;;;;15.32;7.68;;;16.30;84.90;;;;;;5027728;28;20120;-73
2021/08/01 06:00:05;;;;;;;19.67;9.23;;;16.30;84.80;;;;;;5017885;28;20049;-73
2021/08/01 06:02:31;;;;;;;14.05;7.55;;;16.40;84.70;;;;;;5027247;28;20030;-73
2021/08/01 06:04:57;;;;;;;16.70;7.90;;;16.50;84.70;;;;;;5020461;28;20045;-73
2021/08/01 06:07:22;;;;;;;17.98;7.95;;;16.50;84.50;;;;;;5026095;28;20055;-73
2021/08/01 06:09:48;;;;;;;18.45;8.20;;;16.60;84.60;;;;;;5027465;28;20051;-73
2021/08/01 06:12:15;;;;;;;13.65;7.10;;;16.60;84.40;;;;;;5020209;28;20037;-72
2021/08/01 06:14:41;;;;;;;19.70;8.18;;;16.60;84.40;;;;;;5027976;28;20112;-73
2021/08/01 06:17:06;;;;;;;17.15;7.50;;;16.70;84.40;;;;;;5016167;28;20477;-74
2021/08/01 06:19:32;;;;;;;17.70;8.48;;;16.70;84.50;;;;;;5026512;28;20025;-73
2021/08/01 06:21:58;;;;;;;18.30;8.82;;;16.70;84.50;;;;;;5030052;28;20354;-73
2021/08/01 06:24:24;;;;;;;17.88;8.70;;;16.70;84.60;;;;;;4981126;28;1336518;-75
2021/08/01 06:26:49;;;;;;;20.58;9.95;;;16.80;84.50;;;;;;5021236;28;20445;-73
2021/08/01 06:29:16;;;;;;;23.17;9.55;;;16.80;84.70;;;;;;5027587;28;20365;-74
2021/08/01 06:31:42;;;;;;;19.08;10.32;;;16.90;84.80;;;;;;5027945;28;20038;-73
2021/08/01 06:34:08;;;;;;;22.92;10.52;;;17.00;84.70;;;;;;5024462;28;20072;-74
2021/08/01 06:36:34;;;;;;;17.42;9.43;;;17.00;84.80;;;;;;5031409;28;20472;-75
2021/08/01 06:38:59;;;;;;;20.60;10.25;;;17.00;84.80;;;;;;5018527;28;20033;-73
2021/08/01 06:41:25;;;;;;;17.17;9.68;;;17.10;84.80;;;;;;5024829;28;20036;-74
2021/08/01 06:43:51;;;;;;;21.13;9.85;;;17.10;84.70;;;;;;5022133;28;20029;-73
2021/08/01 06:46:16;;;;;;;20.05;9.63;;;17.10;84.60;;;;;;5013922;28;20053;-73
2021/08/01 06:48:43;;;;;;;18.75;9.55;;;17.20;84.60;;;;;;5021303;28;20049;-72
2021/08/01 06:51:08;;;;;;;19.17;9.38;;;17.30;84.60;;;;;;5028274;28;20049;-73
2021/08/01 06:53:34;;;;;;;17.25;9.13;;;17.40;84.20;;;;;;5033259;28;20376;-73
2021/08/01 06:56:00;;;;;;;17.95;8.85;;;17.60;83.80;;;;;;5029791;28;20061;-73
2021/08/01 06:58:25;;;;;;;18.13;8.95;;;17.70;83.60;;;;;;5021164;28;20018;-73
2021/08/01 07:00:52;;;;;;;17.70;8.32;;;17.70;83.50;;;;;;5015731;28;20046;-74
2021/08/01 07:03:18;;;;;;;15.75;8.98;;;17.80;82.80;;;;;;5028241;28;20045;-73
2021/08/01 07:05:44;;;;;;;17.90;8.25;;;17.90;82.50;;;;;;5016332;28;20117;-73
2021/08/01 07:08:10;;;;;;;15.30;8.90;;;18.10;82.30;;;;;;5024446;28;20109;-74
2021/08/01 07:10:36;;;;;;;16.40;8.40;;;18.10;82.00;;;;;;5022749;28;20033;-73
2021/08/01 07:13:05;;;;;;;16.38;7.30;;;18.10;81.70;;;;;;5020309;28;20079;-73
2021/08/01 07:15:32;;;;;;;18.05;7.75;;;18.20;81.80;;;;;;5021674;28;20029;-73
2021/08/01 07:17:59;;;;;;;18.10;8.32;;;18.20;81.50;;;;;;5021029;28;20034;-73
2021/08/01 07:20:25;;;;;;;14.25;8.05;;;18.30;81.30;;;;;;5020064;28;20043;-74
2021/08/01 07:22:51;;;;;;;16.45;9.77;;;18.30;81.70;;;;;;5022203;28;20042;-73
2021/08/01 07:25:18;;;;;;;15.40;8.80;;;18.10;81.40;;;;;;5025510;28;20034;-74
2021/08/01 07:27:44;;;;;;;16.67;9.38;;;18.10;82.00;;;;;;5023258;28;20088;-75
2021/08/01 07:30:10;;;;;;;20.73;10.15;;;18.20;82.00;;;;;;5014229;28;20465;-75
2021/08/01 07:32:37;;;;;;;17.20;11.25;;;18.40;81.70;;;;;;5025070;28;20046;-78
2021/08/01 07:35:03;;;;;;;16.73;10.77;;;18.40;81.70;;;;;;5025097;28;20584;-76
2021/08/01 07:37:28;;;;;;;21.02;13.48;;;18.60;80.90;;;;;;5017754;28;20472;-73
2021/08/01 07:39:54;;;;;;;18.88;11.90;;;18.60;80.60;;;;;;5014122;28;20065;-70
2021/08/01 07:42:20;;;;;;;19.30;11.73;;;18.70;80.60;;;;;;5024387;28;20345;-70
2021/08/01 07:44:46;;;;;;;16.27;11.50;;;18.90;80.00;;;;;;5019375;28;20103;-71
2021/08/01 07:47:17;;;;;;;18.73;10.98;;;19.10;79.30;;;;;;5022064;28;20041;-73
2021/08/01 07:49:44;;;;;;;16.80;10.90;;;19.10;78.80;;;;;;5024088;28;20025;-70
2021/08/01 07:52:10;;;;;;;19.83;13.05;;;19.10;78.80;;;;;;5017660;28;20048;-71
2021/08/01 07:54:36;;;;;;;20.30;14.73;;;19.10;78.80;;;;;;5024102;28;20041;-73
2021/08/01 07:57:02;;;;;;;24.95;19.48;;;19.20;78.30;;;;;;5023604;28;20025;-71
2021/08/01 07:59:28;;;;;;;21.08;18.08;;;19.10;78.30;;;;;;5030951;28;20087;-71
2021/08/01 08:01:53;;;;;;;21.35;18.30;;;19.10;77.90;;;;;;5017912;28;20807;-70
2021/08/01 08:04:19;;;;;;;21.73;17.13;;;19.20;78.10;;;;;;5017495;28;20041;-69
2021/08/01 08:06:45;;;;;;;18.85;16.02;;;19.50;77.00;;;;;;5024123;28;20044;-72
2021/08/01 08:09:10;;;;;;;22.80;15.55;;;19.70;76.80;;;;;;5017443;28;20030;-71
2021/08/01 08:11:36;;;;;;;18.20;14.27;;;20.00;76.00;;;;;;5018631;28;20044;-70
2021/08/01 08:14:02;;;;;;;21.90;16.92;;;20.10;75.00;;;;;;5023012;28;20059;-70
2021/08/01 08:16:27;;;;;;;18.98;16.35;;;20.40;73.90;;;;;;5024144;28;20083;-70
2021/08/01 08:18:53;;;;;;;19.90;16.73;;;20.50;73.70;;;;;;5014630;28;20038;-71
2021/08/01 08:21:19;;;;;;;19.30;15.10;;;20.60;73.00;;;;;;5019174;28;20455;-71
2021/08/01 08:23:45;;;;;;;20.15;15.27;;;20.80;71.70;;;;;;5022477;28;20038;-69
2021/08/01 08:26:11;;;;;;;16.63;14.60;;;21.10;70.60;;;;;;5027445;28;20033;-71
2021/08/01 08:28:37;;;;;;;15.77;13.85;;;21.30;69.00;;;;;;5029246;28;20033;-69
2021/08/01 08:31:02;;;;;;;15.23;12.50;;;21.20;69.10;;;;;;5017441;28;20049;-69
2021/08/01 08:33:28;;;;;;;17.08;12.98;;;21.20;69.70;;;;;;5016265;28;20597;-69
2021/08/01 08:35:54;;;;;;;14.93;13.32;;;21.00;70.00;;;;;;5025759;28;20056;-68
2021/08/01 08:38:19;;;;;;;14.70;12.40;;;20.70;70.90;;;;;;5022921;28;20030;-69
2021/08/01 08:40:45;;;;;;;14.75;12.10;;;20.60;71.00;;;;;;5017321;28;20463;-69
2021/08/01 08:43:12;;;;;;;15.13;12.50;;;20.50;71.50;;;;;;5017969;28;20042;-69
2021/08/01 08:45:43;;;;;;;13.73;11.57;;;20.50;71.90;;;;;;5018423;28;20117;-72
2021/08/01 08:48:09;;;;;;;12.18;10.77;;;20.60;71.80;;;;;;5017330;28;20079;-69
2021/08/01 08:50:37;;;;;;;13.75;10.32;;;20.70;71.30;;;;;;5022960;28;20029;-70
2021/08/01 08:53:05;;;;;;;13.52;10.02;;;20.60;71.10;;;;;;5016369;28;20066;-69
2021/08/01 08:55:35;;;;;;;14.20;9.10;;;20.90;70.50;;;;;;5005332;28;20033;-71
2021/08/01 08:58:05;;;;;;;10.75;7.07;;;20.60;70.50;;;;;;4998860;28;20065;-72
2021/08/01 09:00:32;;;;;;;12.07;7.80;;;20.60;70.80;;;;;;5012334;28;20030;-69
2021/08/01 09:02:58;;;;;;;11.80;7.45;;;20.40;71.50;;;;;;5015948;28;20037;-69
2021/08/01 09:05:26;;;;;;;11.30;6.80;;;20.30;71.90;;;;;;5002366;28;20300;-69
2021/08/01 09:07:52;;;;;;;12.82;6.65;;;20.30;71.90;;;;;;5002022;28;20037;-69
2021/08/01 09:10:18;;;;;;;10.65;6.70;;;20.20;71.00;;;;;;5008205;28;21069;-71
2021/08/01 09:12:48;;;;;;;9.73;6.28;;;20.40;71.70;;;;;;5003930;28;20385;-70
2021/08/01 09:15:21;;;;;;;10.82;6.90;;;20.70;70.70;;;;;;4996312;28;20121;-70
2021/08/01 09:17:47;;;;;;;11.98;6.10;;;20.90;70.90;;;;;;5019546;28;20044;-71
2021/08/01 09:20:19;;;;;;;12.07;5.97;;;21.20;68.10;;;;;;5020017;28;20119;-70
2021/08/01 09:23:06;;;;;;;10.30;6.15;;;21.30;68.30;;;;;;5023224;28;20060;-70
2021/08/01 09:25:40;;;;;;;9.10;5.60;;;21.30;68.00;;;;;;5026895;28;20034;-71
2021/08/01 09:28:15;;;;;;;;;;;21.00;68.90;;;;;;5029009;28;20476;-70
2021/08/01 09:30:46;;;;;;;15.68;9.10;;;20.40;72.80;;;;;;5026474;28;20050;-70
2021/08/01 09:33:15;;;;;;;13.15;8.75;;;19.70;78.10;;;;;;5031945;28;20045;-72
2021/08/01 09:35:41;;;;;;;12.77;7.95;;;19.40;77.90;;;;;;5017922;28;20038;-70
2021/08/01 09:38:07;;;;;;;11.38;7.97;;;19.20;79.80;;;;;;5000909;28;20065;-71
2021/08/01 09:40:34;;;;;;;14.60;9.45;;;19.10;80.20;;;;;;5011806;28;20061;-74
2021/08/01 09:43:15;;;;;;;15.27;7.82;;;19.30;80.50;;;;;;5010162;28;20049;-72
2021/08/01 09:45:41;;;;;;;12.52;7.80;;;19.20;80.40;;;;;;5012224;28;20362;-75
2021/08/01 09:48:20;;;;;;;10.80;7.10;;;19.40;80.40;;;;;;5005040;28;20037;-72
2021/08/01 09:51:20;;;;;;;10.48;7.38;;;19.70;80.20;;;;;;5009892;28;20469;-68
2021/08/01 09:53:57;;;;;;;10.57;7.28;;;19.90;77.90;;;;;;5023372;28;20488;-70
2021/08/01 09:56:23;;;;;;;15.23;7.07;;;20.00;77.90;;;;;;5003822;28;20049;-72
2021/08/01 09:58:49;;;;;;;12.68;6.45;;;20.10;77.60;;;;;;5012212;28;20030;-70
2021/08/01 10:01:16;;;;;;;11.07;7.18;;;20.30;78.20;;;;;;5010166;28;20037;-69
2021/08/01 10:03:46;;;;;;;11.68;6.20;;;20.50;77.20;;;;;;5008375;28;20087;-70
2021/08/01 10:06:23;;;;;;;10.65;6.43;;;20.50;75.20;;;;;;5013609;28;20038;-70
2021/08/01 10:08:53;;;;;;;10.48;6.38;;;20.50;75.00;;;;;;4997228;28;20038;-72
2021/08/01 10:11:20;;;;;;;11.73;8.02;;;20.30;74.80;;;;;;5005025;28;20128;-71
2021/08/01 10:13:48;;;;;;;11.73;8.85;;;19.60;74.40;;;;;;5004669;28;20034;-69
2021/08/01 10:16:14;;;;;;;11.30;8.05;;;19.10;77.10;;;;;;5002984;28;20473;-70
2021/08/01 10:18:44;;;;;;;10.70;9.10;;;18.70;79.20;;;;;;5006386;28;20030;-69
2021/08/01 10:21:13;;;;;;;13.55;11.50;;;18.40;80.30;;;;;;5005923;28;20041;-76
2021/08/01 10:23:47;;;;;;;13.43;11.77;;;18.30;82.50;;;;;;4997766;28;20074;-74
2021/08/01 10:26:14;;;;;;;16.63;12.68;;;18.10;83.70;;;;;;4995833;28;20121;-71
2021/08/01 10:28:52;;;;;;;15.65;11.90;;;18.10;84.50;;;;;;5002252;28;20113;-70
2021/08/01 10:31:29;;;;;;;14.75;12.05;;;18.00;84.30;;;;;;5004205;28;20085;-74
2021/08/01 10:34:09;;;;;;;14.15;12.60;;;18.00;83.90;;;;;;5000084;28;20045;-70
2021/08/01 10:36:37;;;;;;;16.25;13.15;;;18.00;84.20;;;;;;5009068;28;20366;-71
2021/08/01 10:39:05;;;;;;;14.77;13.18;;;18.10;84.00;;;;;;5020237;28;20056;-75
2021/08/01 10:41:33;;;;;;;14.70;12.45;;;18.10;83.40;;;;;;5023167;28;20045;-70
2021/08/01 10:44:10;;;;;;;14.80;13.25;;;18.00;83.90;;;;;;5026386;28;20034;-70
2021/08/01 10:46:41;;;;;;;15.13;13.05;;;18.10;83.70;;;;;;5026362;28;20037;-75
2021/08/01 10:49:10;;;;;;;14.63;13.13;;;18.20;84.00;;;;;;5022123;28;20032;-76
2021/08/01 10:51:36;;;;;;;14.00;12.57;;;18.30;84.10;;;;;;5025425;28;20046;-72
2021/08/01 10:54:20;;;;;;;14.70;11.38;;;18.40;83.10;;;;;;5025863;28;20052;-71
2021/08/01 10:56:47;;;;;;;14.63;12.75;;;18.60;82.90;;;;;;5028119;28;20049;-70
2021/08/01 10:59:47;;;;;;;14.00;12.60;;;18.70;81.70;;;;;;5022320;28;20034;-74
2021/08/01 11:02:15;;;;;;;15.30;12.70;;;18.80;82.00;;;;;;5026325;28;20045;-71
2021/08/01 11:04:45;;;;;;;15.15;12.27;;;19.00;81.50;;;;;;5020376;28;20385;-70
2021/08/01 11:07:27;;;;;;;15.15;11.98;;;19.10;80.70;;;;;;5023587;28;20049;-70
2021/08/01 11:10:08;;;;;;;14.63;12.18;;;19.20;81.20;;;;;;5028004;28;20037;-71
2021/08/01 11:12:34;;;;;;;14.93;12.75;;;19.50;80.20;;;;;;5027739;28;20079;-71
2021/08/01 11:15:01;;;;;;;15.07;12.77;;;19.60;80.00;;;;;;5013304;28;20092;-70
2021/08/01 11:17:42;;;;;;;16.00;14.30;;;19.60;80.50;;;;;;5009291;28;20059;-70
2021/08/01 11:20:20;;;;;;;16.48;14.55;;;19.70;80.00;;;;;;5002517;28;20081;-78
2021/08/01 11:22:46;;;;;;;16.90;14.95;;;19.80;79.80;;;;;;5016851;28;20520;-70
2021/08/01 11:25:20;;;;;;;19.33;17.38;;;19.90;79.50;;;;;;5008904;28;20035;-70
2021/08/01 11:28:05;;;;;;;;;;;19.70;79.10;;;;;;5022090;28;20088;-71
2021/08/01 11:30:53;;;;;;;22.33;19.08;;;19.70;79.30;;;;;;5029460;28;19947;-70
2021/08/01 11:33:28;;;;;;;19.20;17.13;;;19.60;79.70;;;;;;5028595;28;20046;-70
2021/08/01 11:36:12;;;;;;;20.83;18.77;;;19.70;80.50;;;;;;5030135;28;20487;-71
2021/08/01 11:38:56;;;;;;;21.83;19.65;;;19.90;79.70;;;;;;5026822;28;20044;-72
2021/08/01 11:41:27;;;;;;;20.42;18.33;;;20.00;79.20;;;;;;5012590;28;20065;-70
2021/08/01 11:43:59;;;;;;;20.50;18.17;;;20.10;78.50;;;;;;5024289;28;20721;-70
2021/08/01 11:46:54;;;;;;;19.33;17.48;;;20.10;77.80;;;;;;5017459;28;20137;-70
2021/08/01 11:49:24;;;;;;;18.77;16.80;;;20.10;78.30;;;;;;5021687;28;20044;-71
2021/08/01 11:51:51;;;;;;;16.65;15.02;;;20.10;79.40;;;;;;5025714;28;20420;-70
2021/08/01 11:54:18;;;;;;;17.15;14.30;;;20.10;79.00;;;;;;5028257;28;20103;-73
2021/08/01 11:56:44;;;;;;;16.60;14.90;;;20.00;78.60;;;;;;5018595;28;20049;-72
2021/08/01 11:59:15;;;;;;;15.90;14.23;;;20.00;79.80;;;;;;5022858;28;20041;-77
2021/08/01 12:01:41;;;;;;;15.70;13.40;;;20.10;79.30;;;;;;5024152;28;20086;-73
2021/08/01 12:04:08;;;;;;;15.52;13.98;;;20.30;79.10;;;;;;5032081;28;20096;-71
2021/08/01 12:06:34;;;;;;;15.80;14.20;;;20.60;79.00;;;;;;5032259;28;20034;-70
2021/08/01 12:09:15;;;;;;;15.35;13.10;;;20.60;77.40;;;;;;5022924;28;20087;-72
2021/08/01 12:11:41;;;;;;;14.30;12.93;;;20.60;77.90;;;;;;5022794;28;20096;-73
2021/08/01 12:14:09;;;;;;;14.63;12.95;;;20.80;76.90;;;;;;5021025;28;20474;-71
2021/08/01 12:16:35;;;;;;;13.52;12.23;;;20.90;76.50;;;;;;5025096;28;20043;-73
2021/08/01 12:19:19;;;;;;;16.70;13.18;;;21.30;76.10;;;;;;5027361;28;20052;-73
2021/08/01 12:21:45;;;;;;;15.85;13.52;;;21.10;74.80;;;;;;5016232;28;20556;-71
2021/08/01 12:24:40;;;;;;;15.23;13.65;;;21.10;75.20;;;;;;5022663;28;20045;-77
2021/08/01 12:27:12;;;;;;;16.70;15.00;;;20.90;74.90;;;;;;5022254;28;20029;-73
2021/08/01 12:29:41;;;;;;;17.02;15.30;;;20.80;76.40;;;;;;5023873;28;20065;-70
2021/08/01 12:32:39;;;;;;;16.27;14.65;;;21.00;76.10;;;;;;5019811;28;20050;-76
2021/08/01 12:35:21;;;;;;;15.25;13.52;;;21.10;75.70;;;;;;5035144;28;20767;-70
2021/08/01 12:38:02;;;;;;;15.55;12.52;;;21.10;75.40;;;;;;5020162;28;20046;-74
2021/08/01 12:40:45;;;;;;;14.63;12.75;;;21.10;75.70;;;;;;5022885;28;20061;-72